ENKR/KKN METAR and TAF weather

Enter ICAO airport designator
Station Type Date Time Source
ENKR METAR 2022/06/30 13:50 UTC NOAA

ENKR 301350Z 01010KT 350V050 9999 SCT028 19/11 Q1021 RMK WIND 731FT 36012KT


Station Type Date Time Source
ENKR Decoded METAR 2022/06/30 13:50 UTC NOAA

Kirkenes Lufthavn, Norway (ENKR) 69-44N 029-54E 91M
Jun 30, 2022 - 09:50 AM EDT / 2022.06.30 1350 UTC
Wind: from the N (010 degrees) at 12 MPH (10 KT) (direction variable):0
Visibility: greater than 7 mile(s):0
Sky conditions: partly cloudy
Temperature: 66 F (19 C)
Dew Point: 51 F (11 C)
Relative Humidity: 59%
Pressure (altimeter): 30.15 in. Hg (1021 hPa)
ob: ENKR 301350Z 01010KT 350V050 9999 SCT028 19/11 Q1021 RMK WIND 731FT 36012KT
cycle: 14

Station Type Date Time Source
ENKR TAF 2017/08/31 21:36 UTC NOAA

TAF TAF ENKR 312300Z 3121/0109 29005KT 9999 FEW020 SCT040

Example: see airport list